sensor_id;sensor_type;location;lat;lon;timestamp;pressure;altitude;pressure_sealevel;temperature;humidity
21203;BME280;10759;51.982;9.232;2022-09-09T03:20:22;99708.06;;;14.25;100.00
21203;BME280;10759;51.982;9.232;2022-09-09T03:22:52;99714.97;;;14.29;100.00
21203;BME280;10759;51.982;9.232;2022-09-09T03:25:21;99691.31;;;14.20;100.00
21203;BME280;10759;51.982;9.232;2022-09-09T03:27:51;99706.09;;;14.42;100.00
21203;BME280;10759;51.982;9.232;2022-09-09T03:30:21;99694.94;;;14.33;100.00
21203;BME280;10759;51.982;9.232;2022-09-09T03:32:49;99650.25;;;14.02;100.00
21203;BME280;10759;51.982;9.232;2022-09-09T03:35:19;99710.34;;;14.46;100.00
21203;BME280;10759;51.982;9.232;2022-09-09T03:37:47;99712.81;;;14.49;100.00
21203;BME280;10759;51.982;9.232;2022-09-09T03:40:16;99712.34;;;14.42;100.00
21203;BME280;10759;51.982;9.232;2022-09-09T03:42:47;99710.34;;;14.46;100.00
21203;BME280;10759;51.982;9.232;2022-09-09T03:45:16;99693.88;;;14.36;100.00
21203;BME280;10759;51.982;9.232;2022-09-09T03:47:45;99710.34;;;14.46;100.00
21203;BME280;10759;51.982;9.232;2022-09-09T03:50:13;99677.25;;;14.29;100.00
21203;BME280;10759;51.982;9.232;2022-09-09T03:52:46;99710.13;;;14.49;100.00
21203;BME280;10759;51.982;9.232;2022-09-09T03:55:20;99701.28;;;14.61;100.00
21203;BME280;10759;51.982;9.232;2022-09-09T03:57:48;99700.41;;;14.60;100.00
21203;BME280;10759;51.982;9.232;2022-09-09T04:00:16;99671.19;;;14.40;100.00
21203;BME280;10759;51.982;9.232;2022-09-09T04:02:50;99696.34;;;14.68;100.00
21203;BME280;10759;51.982;9.232;2022-09-09T04:05:22;99675.09;;;14.49;100.00
21203;BME280;10759;51.982;9.232;2022-09-09T04:07:52;99698.75;;;14.72;100.00
21203;BME280;10759;51.982;9.232;2022-09-09T04:10:21;99643.25;;;14.41;100.00
21203;BME280;10759;51.982;9.232;2022-09-09T04:12:50;99651.59;;;14.51;100.00
21203;BME280;10759;51.982;9.232;2022-09-09T04:15:20;99687.19;;;14.70;100.00
21203;BME280;10759;51.982;9.232;2022-09-09T04:17:48;99645.81;;;14.57;100.00
21203;BME280;10759;51.982;9.232;2022-09-09T04:20:16;99658.66;;;14.53;100.00
21203;BME280;10759;51.982;9.232;2022-09-09T04:22:45;99687.97;;;14.72;100.00
21203;BME280;10759;51.982;9.232;2022-09-09T04:25:15;99674.91;;;14.79;100.00
21203;BME280;10759;51.982;9.232;2022-09-09T04:27:43;99669.78;;;14.89;100.00
21203;BME280;10759;51.982;9.232;2022-09-09T04:30:12;99679.41;;;14.93;100.00
21203;BME280;10759;51.982;9.232;2022-09-09T04:32:41;99693.50;;;14.84;100.00
21203;BME280;10759;51.982;9.232;2022-09-09T04:35:09;99494.59;;;13.66;100.00
21203;BME280;10759;51.982;9.232;2022-09-09T04:37:37;99690.84;;;14.69;100.00
21203;BME280;10759;51.982;9.232;2022-09-09T04:40:06;99696.91;;;14.73;100.00
21203;BME280;10759;51.982;9.232;2022-09-09T04:42:38;99702.00;;;14.77;100.00
21203;BME280;10759;51.982;9.232;2022-09-09T04:45:13;99708.34;;;14.76;100.00
21203;BME280;10759;51.982;9.232;2022-09-09T04:47:41;99670.84;;;14.45;100.00
21203;BME280;10759;51.982;9.232;2022-09-09T04:50:10;99653.84;;;14.30;100.00
21203;BME280;10759;51.982;9.232;2022-09-09T04:52:38;99667.16;;;14.33;100.00
21203;BME280;10759;51.982;9.232;2022-09-09T04:55:08;99719.31;;;14.88;100.00
21203;BME280;10759;51.982;9.232;2022-09-09T04:57:38;99673.25;;;14.49;100.00
21203;BME280;10759;51.982;9.232;2022-09-09T05:00:10;99707.16;;;14.68;100.00
21203;BME280;10759;51.982;9.232;2022-09-09T05:02:40;99713.56;;;14.79;100.00
21203;BME280;10759;51.982;9.232;2022-09-09T05:05:09;99721.53;;;14.81;100.00
21203;BME280;10759;51.982;9.232;2022-09-09T05:07:38;99658.13;;;14.47;100.00
21203;BME280;10759;51.982;9.232;2022-09-09T05:10:07;99652.91;;;14.31;100.00
21203;BME280;10759;51.982;9.232;2022-09-09T05:12:38;99724.75;;;14.73;100.00
21203;BME280;10759;51.982;9.232;2022-09-09T05:15:07;99662.41;;;14.36;100.00
21203;BME280;10759;51.982;9.232;2022-09-09T05:17:36;99738.00;;;14.76;100.00
21203;BME280;10759;51.982;9.232;2022-09-09T05:20:05;99732.53;;;14.78;100.00
21203;BME280;10759;51.982;9.232;2022-09-09T05:22:37;99739.25;;;14.85;100.00
21203;BME280;10759;51.982;9.232;2022-09-09T05:25:06;99733.88;;;14.85;100.00
21203;BME280;10759;51.982;9.232;2022-09-09T05:27:35;99729.13;;;14.89;100.00
21203;BME280;10759;51.982;9.232;2022-09-09T05:30:07;99717.88;;;14.82;100.00
21203;BME280;10759;51.982;9.232;2022-09-09T05:32:35;99729.31;;;14.86;100.00
21203;BME280;10759;51.982;9.232;2022-09-09T05:35:04;99727.41;;;14.88;100.00
21203;BME280;10759;51.982;9.232;2022-09-09T05:37:32;99712.19;;;14.87;100.00
21203;BME280;10759;51.982;9.232;2022-09-09T05:40:02;99729.88;;;15.18;100.00
21203;BME280;10759;51.982;9.232;2022-09-09T05:42:31;99703.28;;;14.99;100.00
21203;BME280;10759;51.982;9.232;2022-09-09T05:45:00;99732.88;;;15.13;100.00
21203;BME280;10759;51.982;9.232;2022-09-09T05:47:30;99721.91;;;15.16;100.00
21203;BME280;10759;51.982;9.232;2022-09-09T05:49:58;99545.06;;;14.18;100.00
21203;BME280;10759;51.982;9.232;2022-09-09T05:52:27;99738.91;;;15.31;100.00
21203;BME280;10759;51.982;9.232;2022-09-09T05:54:56;99687.44;;;15.07;100.00
21203;BME280;10759;51.982;9.232;2022-09-09T05:57:26;99734.22;;;15.33;100.00
21203;BME280;10759;51.982;9.232;2022-09-09T05:59:54;99723.88;;;15.27;100.00
21203;BME280;10759;51.982;9.232;2022-09-09T06:02:22;99743.78;;;15.39;100.00
21203;BME280;10759;51.982;9.232;2022-09-09T06:04:52;99738.94;;;15.44;100.00
21203;BME280;10759;51.982;9.232;2022-09-09T06:07:26;99724.25;;;15.48;100.00
21203;BME280;10759;51.982;9.232;2022-09-09T06:09:54;99731.94;;;15.67;100.00
21203;BME280;10759;51.982;9.232;2022-09-09T06:12:23;99733.81;;;15.79;100.00
21203;BME280;10759;51.982;9.232;2022-09-09T06:14:51;99728.75;;;15.87;100.00
21203;BME280;10759;51.982;9.232;2022-09-09T06:17:19;99737.16;;;16.08;100.00
21203;BME280;10759;51.982;9.232;2022-09-09T06:19:47;99744.72;;;16.29;100.00
21203;BME280;10759;51.982;9.232;2022-09-09T06:22:16;99711.22;;;16.19;100.00
21203;BME280;10759;51.982;9.232;2022-09-09T06:24:45;99701.34;;;16.30;100.00
21203;BME280;10759;51.982;9.232;2022-09-09T06:27:13;99739.28;;;16.55;100.00
21203;BME280;10759;51.982;9.232;2022-09-09T06:29:41;99740.09;;;16.68;100.00
21203;BME280;10759;51.982;9.232;2022-09-09T06:32:09;99720.41;;;16.66;100.00
21203;BME280;10759;51.982;9.232;2022-09-09T06:34:37;99727.72;;;16.89;100.00
21203;BME280;10759;51.982;9.232;2022-09-09T06:37:05;99726.22;;;16.85;100.00
21203;BME280;10759;51.982;9.232;2022-09-09T06:39:41;99696.94;;;16.79;100.00
21203;BME280;10759;51.982;9.232;2022-09-09T06:42:10;99636.75;;;16.51;100.00
21203;BME280;10759;51.982;9.232;2022-09-09T06:45:04;99713.09;;;17.16;100.00
21203;BME280;10759;51.982;9.232;2022-09-09T06:47:41;99694.91;;;17.18;100.00
21203;BME280;10759;51.982;9.232;2022-09-09T06:50:09;99723.31;;;17.48;100.00
21203;BME280;10759;51.982;9.232;2022-09-09T06:52:38;99721.50;;;17.59;100.00
21203;BME280;10759;51.982;9.232;2022-09-09T06:55:10;99701.25;;;17.41;100.00
21203;BME280;10759;51.982;9.232;2022-09-09T06:57:40;99682.38;;;17.28;100.00
21203;BME280;10759;51.982;9.232;2022-09-09T07:00:14;99622.13;;;16.78;100.00
21203;BME280;10759;51.982;9.232;2022-09-09T07:02:43;99733.06;;;17.50;100.00
21203;BME280;10759;51.982;9.232;2022-09-09T07:05:13;99721.06;;;17.30;100.00
21203;BME280;10759;51.982;9.232;2022-09-09T07:07:43;99678.03;;;17.14;100.00
21203;BME280;10759;51.982;9.232;2022-09-09T07:10:14;99736.53;;;17.28;100.00
21203;BME280;10759;51.982;9.232;2022-09-09T07:12:44;99738.75;;;17.23;100.00
21203;BME280;10759;51.982;9.232;2022-09-09T07:15:13;99736.66;;;17.27;100.00
21203;BME280;10759;51.982;9.232;2022-09-09T07:17:44;99731.47;;;17.24;100.00
21203;BME280;10759;51.982;9.232;2022-09-09T07:20:14;99735.94;;;17.36;100.00
21203;BME280;10759;51.982;9.232;2022-09-09T07:22:42;99695.59;;;17.09;100.00
21203;BME280;10759;51.982;9.232;2022-09-09T07:25:11;99658.94;;;16.68;100.00
21203;BME280;10759;51.982;9.232;2022-09-09T07:27:40;99702.13;;;17.17;100.00
21203;BME280;10759;51.982;9.232;2022-09-09T07:30:09;99730.69;;;17.46;100.00
21203;BME280;10759;51.982;9.232;2022-09-09T07:32:46;99744.25;;;17.57;100.00
21203;BME280;10759;51.982;9.232;2022-09-09T07:35:14;99749.47;;;17.60;100.00
21203;BME280;10759;51.982;9.232;2022-09-09T07:37:43;99742.81;;;17.64;100.00
21203;BME280;10759;51.982;9.232;2022-09-09T07:40:17;99752.19;;;17.71;100.00
21203;BME280;10759;51.982;9.232;2022-09-09T07:42:50;99711.00;;;17.44;100.00
21203;BME280;10759;51.982;9.232;2022-09-09T07:45:18;99697.19;;;17.35;100.00
21203;BME280;10759;51.982;9.232;2022-09-09T07:47:46;99735.69;;;17.63;100.00
21203;BME280;10759;51.982;9.232;2022-09-09T07:50:16;99713.50;;;17.58;100.00
21203;BME280;10759;51.982;9.232;2022-09-09T07:52:44;99710.59;;;17.72;100.00
21203;BME280;10759;51.982;9.232;2022-09-09T07:55:13;99741.06;;;17.87;100.00
21203;BME280;10759;51.982;9.232;2022-09-09T07:57:41;99744.41;;;18.02;100.00
21203;BME280;10759;51.982;9.232;2022-09-09T08:00:13;99743.16;;;18.06;100.00
21203;BME280;10759;51.982;9.232;2022-09-09T08:02:48;99745.16;;;18.15;100.00
21203;BME280;10759;51.982;9.232;2022-09-09T08:05:16;99735.44;;;18.13;100.00
21203;BME280;10759;51.982;9.232;2022-09-09T08:07:45;99742.69;;;18.23;100.00
21203;BME280;10759;51.982;9.232;2022-09-09T08:10:14;99582.69;;;17.22;100.00
21203;BME280;10759;51.982;9.232;2022-09-09T08:12:44;99742.69;;;18.23;99.88
21203;BME280;10759;51.982;9.232;2022-09-09T08:15:34;99747.16;;;18.24;100.00
21203;BME280;10759;51.982;9.232;2022-09-09T08:18:03;99714.59;;;18.13;100.00
21203;BME280;10759;51.982;9.232;2022-09-09T08:20:33;99723.22;;;18.41;100.00
21203;BME280;10759;51.982;9.232;2022-09-09T08:23:03;99681.69;;;18.18;100.00
21203;BME280;10759;51.982;9.232;2022-09-09T08:25:31;99742.84;;;18.56;99.90
21203;BME280;10759;51.982;9.232;2022-09-09T08:28:01;99745.88;;;18.62;100.00
21203;BME280;10759;51.982;9.232;2022-09-09T08:30:30;99735.41;;;18.58;100.00
21203;BME280;10759;51.982;9.232;2022-09-09T08:33:00;99732.69;;;18.58;99.44
21203;BME280;10759;51.982;9.232;2022-09-09T08:35:29;99745.28;;;18.59;98.30
21203;BME280;10759;51.982;9.232;2022-09-09T08:38:00;99756.25;;;18.80;99.86
21203;BME280;10759;51.982;9.232;2022-09-09T08:40:36;99752.03;;;18.98;99.83
21203;BME280;10759;51.982;9.232;2022-09-09T08:43:08;99728.56;;;19.41;97.53
21203;BME280;10759;51.982;9.232;2022-09-09T08:45:48;99756.06;;;19.80;93.81
21203;BME280;10759;51.982;9.232;2022-09-09T08:48:34;99767.28;;;19.86;95.07
21203;BME280;10759;51.982;9.232;2022-09-09T08:51:08;99699.75;;;19.49;91.46
21203;BME280;10759;51.982;9.232;2022-09-09T08:53:39;99761.06;;;19.63;91.05
21203;BME280;10759;51.982;9.232;2022-09-09T08:56:12;99730.13;;;19.55;90.40
21203;BME280;10759;51.982;9.232;2022-09-09T08:58:48;99760.78;;;19.99;89.16
21203;BME280;10759;51.982;9.232;2022-09-09T09:01:34;99755.84;;;19.92;84.86
21203;BME280;10759;51.982;9.232;2022-09-09T09:04:24;99760.06;;;19.97;87.95
21203;BME280;10759;51.982;9.232;2022-09-09T09:07:04;99753.06;;;19.83;89.57
21203;BME280;10759;51.982;9.232;2022-09-09T09:09:42;99732.00;;;19.75;89.75
21203;BME280;10759;51.982;9.232;2022-09-09T09:12:16;99763.41;;;20.10;88.80
21203;BME280;10759;51.982;9.232;2022-09-09T09:14:46;99684.22;;;19.72;85.98
21203;BME280;10759;51.982;9.232;2022-09-09T09:17:18;99755.84;;;19.92;85.28
21203;BME280;10759;51.982;9.232;2022-09-09T09:19:49;99758.06;;;19.78;87.61
21203;BME280;10759;51.982;9.232;2022-09-09T09:22:19;99710.69;;;19.27;85.76
21203;BME280;10759;51.982;9.232;2022-09-09T09:24:55;99755.25;;;19.68;85.64
21203;BME280;10759;51.982;9.232;2022-09-09T09:27:31;99754.75;;;19.74;87.41
21203;BME280;10759;51.982;9.232;2022-09-09T09:30:05;99757.00;;;19.90;87.32
21203;BME280;10759;51.982;9.232;2022-09-09T09:32:54;99708.84;;;20.02;83.00
21203;BME280;10759;51.982;9.232;2022-09-09T09:35:25;99743.22;;;20.64;78.69
21203;BME280;10759;51.982;9.232;2022-09-09T09:37:55;99663.28;;;20.55;80.81
21203;BME280;10759;51.982;9.232;2022-09-09T09:40:49;99737.19;;;21.30;81.37
21203;BME280;10759;51.982;9.232;2022-09-09T09:43:24;99738.91;;;21.70;74.30
21203;BME280;10759;51.982;9.232;2022-09-09T09:45:53;99717.13;;;21.60;77.26
21203;BME280;10759;51.982;9.232;2022-09-09T09:48:41;99750.97;;;21.87;75.23
21203;BME280;10759;51.982;9.232;2022-09-09T09:51:13;99744.53;;;21.49;74.87
21203;BME280;10759;51.982;9.232;2022-09-09T09:53:43;99743.78;;;21.18;78.23
21203;BME280;10759;51.982;9.232;2022-09-09T09:56:14;99724.38;;;20.92;76.25
21203;BME280;10759;51.982;9.232;2022-09-09T09:58:50;99705.22;;;20.53;75.17
21203;BME280;10759;51.982;9.232;2022-09-09T10:01:24;99737.97;;;20.82;78.11
21203;BME280;10759;51.982;9.232;2022-09-09T10:03:54;99721.63;;;20.82;78.36
21203;BME280;10759;51.982;9.232;2022-09-09T10:06:34;99739.75;;;20.62;76.02
21203;BME280;10759;51.982;9.232;2022-09-09T10:09:20;99689.97;;;20.41;75.97
21203;BME280;10759;51.982;9.232;2022-09-09T10:11:56;99701.41;;;20.34;80.27
21203;BME280;10759;51.982;9.232;2022-09-09T10:14:30;99741.53;;;20.42;80.55
21203;BME280;10759;51.982;9.232;2022-09-09T10:17:12;99746.13;;;20.11;80.05
21203;BME280;10759;51.982;9.232;2022-09-09T10:19:54;99733.38;;;19.90;80.61
21203;BME280;10759;51.982;9.232;2022-09-09T10:22:28;99739.81;;;19.89;82.40
21203;BME280;10759;51.982;9.232;2022-09-09T10:25:13;99749.31;;;19.63;82.49
21203;BME280;10759;51.982;9.232;2022-09-09T10:27:53;99763.09;;;19.18;87.23
21203;BME280;10759;51.982;9.232;2022-09-09T10:30:37;99783.75;;;18.98;90.96
21203;BME280;10759;51.982;9.232;2022-09-09T10:33:14;99773.03;;;18.74;94.18
21203;BME280;10759;51.982;9.232;2022-09-09T10:35:52;99735.03;;;18.06;99.10
21203;BME280;10759;51.982;9.232;2022-09-09T10:38:30;99774.88;;;18.17;99.83
21203;BME280;10759;51.982;9.232;2022-09-09T10:41:09;99770.75;;;17.89;100.00
21203;BME280;10759;51.982;9.232;2022-09-09T10:43:50;99705.00;;;17.27;100.00
21203;BME280;10759;51.982;9.232;2022-09-09T10:46:33;99775.22;;;17.77;100.00
21203;BME280;10759;51.982;9.232;2022-09-09T10:49:13;99728.75;;;17.48;100.00
21203;BME280;10759;51.982;9.232;2022-09-09T10:51:54;99663.19;;;17.31;100.00
21203;BME280;10759;51.982;9.232;2022-09-09T10:54:45;99673.94;;;17.44;100.00
21203;BME280;10759;51.982;9.232;2022-09-09T10:57:26;99747.63;;;18.18;100.00
21203;BME280;10759;51.982;9.232;2022-09-09T11:00:03;99753.31;;;18.83;100.00
21203;BME280;10759;51.982;9.232;2022-09-09T11:02:33;99758.41;;;19.20;100.00
21203;BME280;10759;51.982;9.232;2022-09-09T11:05:05;99748.50;;;19.51;100.00
21203;BME280;10759;51.982;9.232;2022-09-09T11:07:39;99732.50;;;19.69;100.00
21203;BME280;10759;51.982;9.232;2022-09-09T11:10:18;99742.44;;;20.01;100.00
21203;BME280;10759;51.982;9.232;2022-09-09T11:12:55;99746.69;;;20.14;100.00
21203;BME280;10759;51.982;9.232;2022-09-09T11:15:31;99739.56;;;19.92;100.00
21203;BME280;10759;51.982;9.232;2022-09-09T11:18:01;99713.72;;;19.77;100.00
21203;BME280;10759;51.982;9.232;2022-09-09T11:20:32;99728.44;;;19.75;100.00
21203;BME280;10759;51.982;9.232;2022-09-09T11:23:04;99740.03;;;19.77;100.00
21203;BME280;10759;51.982;9.232;2022-09-09T11:25:40;99736.69;;;19.73;100.00
21203;BME280;10759;51.982;9.232;2022-09-09T11:28:24;99647.34;;;19.38;100.00
21203;BME280;10759;51.982;9.232;2022-09-09T11:31:08;99736.63;;;20.05;100.00
21203;BME280;10759;51.982;9.232;2022-09-09T11:36:48;99699.41;;;20.06;100.00
21203;BME280;10759;51.982;9.232;2022-09-09T11:39:36;99721.91;;;20.38;100.00
21203;BME280;10759;51.982;9.232;2022-09-09T11:42:17;99730.66;;;20.73;99.24
21203;BME280;10759;51.982;9.232;2022-09-09T11:44:46;99740.28;;;20.96;98.21
21203;BME280;10759;51.982;9.232;2022-09-09T11:47:23;99736.72;;;20.96;94.57
21203;BME280;10759;51.982;9.232;2022-09-09T11:50:08;99720.66;;;20.93;95.52
21203;BME280;10759;51.982;9.232;2022-09-09T11:52:38;99732.00;;;21.08;88.61
21203;BME280;10759;51.982;9.232;2022-09-09T11:55:09;99731.16;;;21.17;90.91
21203;BME280;10759;51.982;9.232;2022-09-09T11:57:40;99739.47;;;21.15;92.57
21203;BME280;10759;51.982;9.232;2022-09-09T12:00:36;99734.28;;;21.02;91.70
21203;BME280;10759;51.982;9.232;2022-09-09T12:03:05;99731.59;;;21.12;91.01
21203;BME280;10759;51.982;9.232;2022-09-09T12:05:38;99737.69;;;20.75;84.34
21203;BME280;10759;51.982;9.232;2022-09-09T12:08:09;99671.19;;;19.97;87.47
21203;BME280;10759;51.982;9.232;2022-09-09T12:10:39;99731.69;;;20.20;85.31
21203;BME280;10759;51.982;9.232;2022-09-09T12:13:15;99739.03;;;19.99;84.52
21203;BME280;10759;51.982;9.232;2022-09-09T12:15:48;99729.91;;;20.09;88.12
21203;BME280;10759;51.982;9.232;2022-09-09T12:18:22;99709.03;;;20.10;88.63
21203;BME280;10759;51.982;9.232;2022-09-09T12:20:57;99697.84;;;20.13;85.50
21203;BME280;10759;51.982;9.232;2022-09-09T12:23:36;99700.81;;;20.31;85.81
21203;BME280;10759;51.982;9.232;2022-09-09T12:26:28;99713.28;;;20.64;85.18
21203;BME280;10759;51.982;9.232;2022-09-09T12:29:09;99704.41;;;20.72;87.85
21203;BME280;10759;51.982;9.232;2022-09-09T12:31:44;99605.84;;;20.18;82.76
21203;BME280;10759;51.982;9.232;2022-09-09T12:34:16;99677.16;;;20.62;85.99
21203;BME280;10759;51.982;9.232;2022-09-09T12:36:49;99713.91;;;20.77;86.51
21203;BME280;10759;51.982;9.232;2022-09-09T12:39:27;99687.41;;;20.49;84.35
21203;BME280;10759;51.982;9.232;2022-09-09T12:41:57;99719.88;;;20.71;85.23
21203;BME280;10759;51.982;9.232;2022-09-09T12:44:26;99699.63;;;21.05;83.09
21203;BME280;10759;51.982;9.232;2022-09-09T12:46:56;99715.38;;;21.11;80.10
21203;BME280;10759;51.982;9.232;2022-09-09T12:49:29;99708.63;;;21.05;82.81
21203;BME280;10759;51.982;9.232;2022-09-09T12:52:03;99641.09;;;20.60;81.93
21203;BME280;10759;51.982;9.232;2022-09-09T12:54:34;99649.38;;;20.58;78.25
21203;BME280;10759;51.982;9.232;2022-09-09T12:57:03;99657.84;;;20.65;80.31
21203;BME280;10759;51.982;9.232;2022-09-09T12:59:38;99691.16;;;20.98;80.79
21203;BME280;10759;51.982;9.232;2022-09-09T13:02:17;99698.03;;;21.21;76.73
21203;BME280;10759;51.982;9.232;2022-09-09T13:04:46;99702.50;;;21.32;79.36
21203;BME280;10759;51.982;9.232;2022-09-09T13:07:14;99698.75;;;21.62;77.06
21203;BME280;10759;51.982;9.232;2022-09-09T13:09:44;99675.25;;;21.61;77.09
21203;BME280;10759;51.982;9.232;2022-09-09T13:12:13;99702.16;;;21.94;74.43
21203;BME280;10759;51.982;9.232;2022-09-09T13:14:45;99691.72;;;21.60;73.11
21203;BME280;10759;51.982;9.232;2022-09-09T13:17:21;99691.16;;;21.76;73.41
21203;BME280;10759;51.982;9.232;2022-09-09T13:19:50;99694.16;;;21.73;72.17
21203;BME280;10759;51.982;9.232;2022-09-09T13:22:20;99689.00;;;21.70;69.44
21203;BME280;10759;51.982;9.232;2022-09-09T13:24:58;99661.03;;;21.58;74.59
21203;BME280;10759;51.982;9.232;2022-09-09T13:27:31;99672.09;;;21.56;68.78
21203;BME280;10759;51.982;9.232;2022-09-09T13:30:23;99688.34;;;21.95;72.15
21203;BME280;10759;51.982;9.232;2022-09-09T13:33:20;99675.16;;;22.00;69.58
21203;BME280;10759;51.982;9.232;2022-09-09T13:35:51;99675.84;;;22.02;70.09
21203;BME280;10759;51.982;9.232;2022-09-09T13:38:22;99660.13;;;21.86;66.82
21203;BME280;10759;51.982;9.232;2022-09-09T13:40:57;99676.25;;;22.07;67.55
21203;BME280;10759;51.982;9.232;2022-09-09T13:43:30;99677.38;;;22.15;70.84
21203;BME280;10759;51.982;9.232;2022-09-09T13:46:02;99674.94;;;22.21;68.68
21203;BME280;10759;51.982;9.232;2022-09-09T13:48:30;99676.25;;;22.07;68.60
21203;BME280;10759;51.982;9.232;2022-09-09T13:51:01;99625.00;;;21.74;67.12
21203;BME280;10759;51.982;9.232;2022-09-09T13:53:29;99679.28;;;22.04;68.56
21203;BME280;10759;51.982;9.232;2022-09-09T13:55:57;99676.03;;;21.91;68.67
21203;BME280;10759;51.982;9.232;2022-09-09T13:58:26;99683.94;;;21.84;65.36
21203;BME280;10759;51.982;9.232;2022-09-09T14:00:54;99686.53;;;21.86;70.66
21203;BME280;10759;51.982;9.232;2022-09-09T14:03:23;99688.09;;;21.89;69.13
21203;BME280;10759;51.982;9.232;2022-09-09T14:05:51;99686.66;;;21.94;62.58
21203;BME280;10759;51.982;9.232;2022-09-09T14:08:24;99682.63;;;21.98;64.16
21203;BME280;10759;51.982;9.232;2022-09-09T14:10:53;99681.50;;;21.91;62.99
21203;BME280;10759;51.982;9.232;2022-09-09T14:13:24;99678.63;;;21.83;62.74
21203;BME280;10759;51.982;9.232;2022-09-09T14:15:51;99643.97;;;21.56;63.93
21203;BME280;10759;51.982;9.232;2022-09-09T14:18:20;99674.56;;;21.97;64.00
21203;BME280;10759;51.982;9.232;2022-09-09T14:20:50;99658.13;;;22.16;61.81
21203;BME280;10759;51.982;9.232;2022-09-09T14:23:19;99668.59;;;22.31;58.92
21203;BME280;10759;51.982;9.232;2022-09-09T14:25:48;99656.13;;;22.28;55.58
21203;BME280;10759;51.982;9.232;2022-09-09T14:28:17;99610.69;;;21.99;61.40
21203;BME280;10759;51.982;9.232;2022-09-09T14:31:04;99637.78;;;22.11;56.03
21203;BME280;10759;51.982;9.232;2022-09-09T14:33:33;99661.25;;;22.31;57.50
21203;BME280;10759;51.982;9.232;2022-09-09T14:36:03;99602.63;;;21.70;58.45
21203;BME280;10759;51.982;9.232;2022-09-09T14:38:34;99633.22;;;22.01;55.91
21203;BME280;10759;51.982;9.232;2022-09-09T14:41:05;99536.81;;;21.55;50.63
21203;BME280;10759;51.982;9.232;2022-09-09T14:43:33;99639.84;;;22.36;54.70
21203;BME280;10759;51.982;9.232;2022-09-09T14:46:04;99651.94;;;22.51;53.84
21203;BME280;10759;51.982;9.232;2022-09-09T14:48:34;99650.00;;;22.44;52.50
21203;BME280;10759;51.982;9.232;2022-09-09T14:51:12;99649.69;;;22.47;52.74
21203;BME280;10759;51.982;9.232;2022-09-09T14:53:42;99647.72;;;22.39;56.82
21203;BME280;10759;51.982;9.232;2022-09-09T14:56:12;99656.97;;;22.19;55.82
21203;BME280;10759;51.982;9.232;2022-09-09T14:58:40;99651.25;;;22.12;55.90
21203;BME280;10759;51.982;9.232;2022-09-09T15:01:10;99646.81;;;22.11;55.60
21203;BME280;10759;51.982;9.232;2022-09-09T15:03:39;99646.38;;;22.16;57.16
21203;BME280;10759;51.982;9.232;2022-09-09T15:06:10;99644.81;;;22.23;54.36
21203;BME280;10759;51.982;9.232;2022-09-09T15:08:40;99648.91;;;22.27;51.63
21203;BME280;10759;51.982;9.232;2022-09-09T15:11:11;99641.66;;;22.08;54.74
21203;BME280;10759;51.982;9.232;2022-09-09T15:13:40;99638.06;;;22.07;56.18
21203;BME280;10759;51.982;9.232;2022-09-09T15:16:10;99623.25;;;21.73;57.21
21203;BME280;10759;51.982;9.232;2022-09-09T15:18:40;99619.56;;;21.64;55.30
21203;BME280;10759;51.982;9.232;2022-09-09T15:21:11;99636.72;;;21.84;54.59
21203;BME280;10759;51.982;9.232;2022-09-09T15:23:39;99653.97;;;21.75;54.00
21203;BME280;10759;51.982;9.232;2022-09-09T15:26:08;99643.41;;;21.52;55.78
21203;BME280;10759;51.982;9.232;2022-09-09T15:28:37;99532.06;;;20.91;55.59
21203;BME280;10759;51.982;9.232;2022-09-09T15:31:07;99661.19;;;21.56;58.94
21203;BME280;10759;51.982;9.232;2022-09-09T15:33:35;99645.69;;;21.37;56.19
21203;BME280;10759;51.982;9.232;2022-09-09T15:36:16;99656.91;;;21.44;54.46
21203;BME280;10759;51.982;9.232;2022-09-09T15:38:45;99550.56;;;20.87;56.26
21203;BME280;10759;51.982;9.232;2022-09-09T15:41:14;99587.25;;;21.02;59.46
21203;BME280;10759;51.982;9.232;2022-09-09T15:43:44;99574.19;;;20.87;55.68
21203;BME280;10759;51.982;9.232;2022-09-09T15:46:25;99609.88;;;21.03;57.07
21203;BME280;10759;51.982;9.232;2022-09-09T15:48:55;99652.59;;;21.32;61.68
21203;BME280;10759;51.982;9.232;2022-09-09T15:51:25;99647.56;;;21.37;58.75
21203;BME280;10759;51.982;9.232;2022-09-09T15:54:12;99631.22;;;21.17;61.68
21203;BME280;10759;51.982;9.232;2022-09-09T15:56:41;99646.56;;;21.18;63.19
21203;BME280;10759;51.982;9.232;2022-09-09T15:59:09;99602.56;;;20.84;63.53
21203;BME280;10759;51.982;9.232;2022-09-09T16:01:38;99584.63;;;20.72;66.05
21203;BME280;10759;51.982;9.232;2022-09-09T16:04:07;99645.16;;;21.05;66.78
21203;BME280;10759;51.982;9.232;2022-09-09T16:06:37;99647.28;;;21.01;66.91
21203;BME280;10759;51.982;9.232;2022-09-09T16:09:06;99642.13;;;20.98;66.54
21203;BME280;10759;51.982;9.232;2022-09-09T16:11:37;99641.84;;;21.01;68.16
21203;BME280;10759;51.982;9.232;2022-09-09T16:14:06;99651.84;;;20.81;67.21
21203;BME280;10759;51.982;9.232;2022-09-09T16:16:35;99642.84;;;20.80;67.54
21203;BME280;10759;51.982;9.232;2022-09-09T16:19:04;99583.16;;;20.38;67.89
21203;BME280;10759;51.982;9.232;2022-09-09T16:21:35;99604.94;;;20.48;67.37
21203;BME280;10759;51.982;9.232;2022-09-09T16:24:06;99660.44;;;20.76;66.99
21203;BME280;10759;51.982;9.232;2022-09-09T16:26:36;99669.44;;;20.67;66.88
21203;BME280;10759;51.982;9.232;2022-09-09T16:29:05;99621.69;;;20.44;67.58
21203;BME280;10759;51.982;9.232;2022-09-09T16:31:33;99664.56;;;20.61;67.64
21203;BME280;10759;51.982;9.232;2022-09-09T16:34:01;99657.69;;;20.67;65.45
21203;BME280;10759;51.982;9.232;2022-09-09T16:36:33;99658.13;;;20.62;66.78
21203;BME280;10759;51.982;9.232;2022-09-09T16:39:04;99669.81;;;20.53;66.88
21203;BME280;10759;51.982;9.232;2022-09-09T16:41:34;99664.19;;;20.45;69.86
21203;BME280;10759;51.982;9.232;2022-09-09T16:44:04;99673.81;;;20.49;69.16